createdAt,value
2023-03-19T00:01:33.564Z,5.67
2023-03-19T00:04:03.117Z,5.70
2023-03-19T00:06:32.372Z,5.33
2023-03-19T00:09:01.678Z,5.87
2023-03-19T00:11:30.938Z,6.08
2023-03-19T00:14:00.696Z,5.72
2023-03-19T00:16:29.993Z,5.58
2023-03-19T00:18:59.219Z,6.53
2023-03-19T00:21:30.619Z,6.22
2023-03-19T00:24:01.988Z,5.95
2023-03-19T00:26:32.370Z,5.75
2023-03-19T00:29:02.674Z,5.85
2023-03-19T00:31:32.112Z,6.30
2023-03-19T00:34:01.852Z,6.00
2023-03-19T00:36:31.434Z,6.17
2023-03-19T00:39:01.157Z,5.87
2023-03-19T00:41:30.357Z,6.00
2023-03-19T00:44:00.318Z,5.83
2023-03-19T00:46:31.407Z,6.27
2023-03-19T00:49:01.472Z,6.65
2023-03-19T00:51:30.704Z,6.83
2023-03-19T00:53:59.925Z,7.40
2023-03-19T00:56:29.424Z,6.90
2023-03-19T00:58:58.979Z,7.28
2023-03-19T01:01:28.533Z,7.28
2023-03-19T01:03:59.099Z,7.70
2023-03-19T01:06:28.558Z,7.60
2023-03-19T01:08:58.047Z,7.47
2023-03-19T01:11:27.396Z,7.53
2023-03-19T01:13:56.630Z,8.23
2023-03-19T01:16:26.412Z,7.87
2023-03-19T01:18:55.982Z,8.43
2023-03-19T01:21:25.969Z,8.85
2023-03-19T01:23:55.954Z,8.75
2023-03-19T01:26:26.233Z,8.35
2023-03-19T01:28:59.422Z,9.28
2023-03-19T01:31:29.239Z,8.25
2023-03-19T01:34:06.591Z,8.75
2023-03-19T01:36:40.234Z,9.73
2023-03-19T01:39:11.730Z,9.75
2023-03-19T01:41:41.159Z,9.88
2023-03-19T01:44:33.471Z,9.88
2023-03-19T01:47:22.549Z,9.93
2023-03-19T01:50:13.054Z,10.13
2023-03-19T01:52:43.250Z,10.38
2023-03-19T01:55:14.315Z,10.85
2023-03-19T01:57:48.277Z,10.68
2023-03-19T02:00:28.713Z,9.98
2023-03-19T02:03:02.188Z,10.40
2023-03-19T02:05:46.217Z,10.43
2023-03-19T02:08:17.221Z,10.50
2023-03-19T02:10:48.188Z,10.80
2023-03-19T02:13:18.029Z,10.82
2023-03-19T02:15:47.708Z,10.75
2023-03-19T02:18:17.430Z,11.40
2023-03-19T02:21:08.526Z,11.18
2023-03-19T02:24:11.868Z,12.00
2023-03-19T02:26:46.467Z,11.35
2023-03-19T02:29:15.858Z,12.10
2023-03-19T02:31:47.303Z,12.93
2023-03-19T02:34:25.994Z,12.93
2023-03-19T02:37:02.423Z,12.58
2023-03-19T02:39:43.612Z,14.13
2023-03-19T02:42:15.926Z,14.03
2023-03-19T02:44:46.275Z,14.23
2023-03-19T02:47:15.723Z,13.78
2023-03-19T02:49:46.267Z,15.45
2023-03-19T02:52:15.638Z,14.40
2023-03-19T02:54:45.305Z,15.20
2023-03-19T02:57:14.707Z,16.02
2023-03-19T02:59:44.274Z,15.93
2023-03-19T03:02:14.226Z,15.43
2023-03-19T03:04:43.839Z,16.57
2023-03-19T03:07:13.135Z,16.35
2023-03-19T03:09:42.581Z,15.93
2023-03-19T03:12:12.129Z,17.70
2023-03-19T03:14:41.938Z,16.73
2023-03-19T03:17:11.294Z,16.77
2023-03-19T03:19:40.688Z,17.42
2023-03-19T03:22:10.064Z,16.32
2023-03-19T03:24:39.378Z,16.80
2023-03-19T03:27:09.570Z,16.90
2023-03-19T03:29:38.799Z,17.27
2023-03-19T03:32:09.184Z,17.20
2023-03-19T03:34:38.425Z,16.82
2023-03-19T03:37:09.386Z,16.80
2023-03-19T03:39:38.629Z,16.05
2023-03-19T03:42:08.386Z,16.65
2023-03-19T03:44:38.347Z,16.73
2023-03-19T03:47:08.163Z,17.05
2023-03-19T03:49:37.513Z,17.85
2023-03-19T03:52:08.510Z,18.20
2023-03-19T03:54:37.939Z,18.77
2023-03-19T03:57:08.093Z,18.87
2023-03-19T03:59:37.488Z,20.77
2023-03-19T04:02:07.488Z,19.80
2023-03-19T04:04:37.255Z,19.37
2023-03-19T04:07:06.832Z,20.05
2023-03-19T04:09:37.897Z,19.15
2023-03-19T04:12:07.470Z,19.37
2023-03-19T04:14:37.789Z,18.80
2023-03-19T04:17:07.751Z,19.77
2023-03-19T04:19:37.192Z,18.50
2023-03-19T04:22:08.149Z,20.77
2023-03-19T04:24:37.787Z,21.60
2023-03-19T04:27:08.566Z,22.70
2023-03-19T04:29:38.268Z,24.00
2023-03-19T04:32:08.821Z,23.85
2023-03-19T04:34:38.611Z,24.82
2023-03-19T04:37:09.663Z,26.35
2023-03-19T04:39:40.609Z,25.40
2023-03-19T04:42:10.090Z,24.95
2023-03-19T04:44:41.048Z,24.67
2023-03-19T04:47:11.419Z,25.55
2023-03-19T04:49:42.535Z,23.98
2023-03-19T04:52:12.117Z,23.18
2023-03-19T04:54:42.053Z,23.47
2023-03-19T04:57:11.428Z,23.30
2023-03-19T04:59:42.083Z,23.25
2023-03-19T05:02:12.827Z,22.82
2023-03-19T05:04:42.974Z,23.57
2023-03-19T05:07:14.146Z,23.73
2023-03-19T05:09:44.007Z,24.82
2023-03-19T05:12:14.505Z,25.12
2023-03-19T05:14:45.521Z,24.18
2023-03-19T05:17:22.586Z,26.57
2023-03-19T05:19:57.022Z,26.07
2023-03-19T05:22:27.410Z,26.87
2023-03-19T05:24:57.761Z,27.58
2023-03-19T05:27:29.242Z,29.05
2023-03-19T05:30:08.027Z,29.75
2023-03-19T05:32:59.688Z,30.95
2023-03-19T05:35:37.611Z,31.57
2023-03-19T05:38:09.807Z,29.10
2023-03-19T05:40:41.036Z,29.77
2023-03-19T05:43:13.124Z,29.63
2023-03-19T05:45:43.582Z,28.32
2023-03-19T05:48:14.527Z,29.40
2023-03-19T05:50:45.223Z,27.82
2023-03-19T05:53:16.430Z,28.70
2023-03-19T05:55:47.499Z,29.45
2023-03-19T05:58:17.097Z,28.75
2023-03-19T06:00:48.818Z,30.35
2023-03-19T06:03:18.327Z,29.98
2023-03-19T06:05:53.851Z,27.95
2023-03-19T06:08:24.791Z,30.08
2023-03-19T06:11:02.009Z,29.87
2023-03-19T06:13:31.337Z,29.63
2023-03-19T06:16:02.764Z,30.17
2023-03-19T06:18:40.006Z,30.25
2023-03-19T06:21:10.986Z,31.10
2023-03-19T06:23:40.952Z,30.80
2023-03-19T06:26:12.115Z,31.48
2023-03-19T06:28:43.039Z,31.48
2023-03-19T06:31:12.861Z,29.95
2023-03-19T06:33:43.910Z,30.72
2023-03-19T06:36:13.888Z,30.02
2023-03-19T06:38:43.247Z,31.10
2023-03-19T06:41:13.053Z,30.88
2023-03-19T06:43:43.102Z,31.75
2023-03-19T06:46:13.203Z,30.55
2023-03-19T06:48:42.424Z,31.95
2023-03-19T06:51:11.722Z,31.97
2023-03-19T06:53:41.100Z,31.95
2023-03-19T06:56:10.611Z,35.63
2023-03-19T06:58:39.848Z,35.10
2023-03-19T07:01:09.355Z,36.80
2023-03-19T07:03:38.819Z,35.95
2023-03-19T07:06:08.202Z,36.42
2023-03-19T07:08:37.747Z,35.13
2023-03-19T07:11:07.984Z,34.85
2023-03-19T07:13:38.056Z,33.58
2023-03-19T07:16:07.932Z,33.13
2023-03-19T07:18:37.868Z,34.05
2023-03-19T07:21:07.184Z,29.65
2023-03-19T07:23:36.758Z,28.67
2023-03-19T07:26:06.414Z,28.70
2023-03-19T07:28:36.595Z,27.90
2023-03-19T07:31:07.087Z,26.10
2023-03-19T07:33:36.831Z,25.62
2023-03-19T07:36:07.247Z,23.38
2023-03-19T07:38:36.753Z,23.62
2023-03-19T07:41:06.243Z,22.35
2023-03-19T07:43:36.082Z,23.65
2023-03-19T07:46:06.444Z,22.37
2023-03-19T07:48:36.456Z,23.42
2023-03-19T07:51:05.984Z,24.35
2023-03-19T07:53:35.498Z,23.27
2023-03-19T07:56:05.058Z,24.60
2023-03-19T07:58:34.315Z,23.60
2023-03-19T08:01:03.559Z,23.07
2023-03-19T08:03:33.347Z,23.18
2023-03-19T08:06:03.938Z,22.98
2023-03-19T08:08:34.997Z,23.57
2023-03-19T08:11:05.034Z,21.75
2023-03-19T08:13:34.738Z,21.12
2023-03-19T08:16:04.267Z,20.72
2023-03-19T08:18:33.892Z,20.15
2023-03-19T08:21:04.063Z,20.25
2023-03-19T08:23:33.356Z,19.55
2023-03-19T08:26:02.974Z,19.07
2023-03-19T08:28:32.258Z,18.77
2023-03-19T08:31:10.242Z,20.08
2023-03-19T08:33:39.988Z,19.45
2023-03-19T08:36:12.354Z,18.30
2023-03-19T08:38:42.517Z,18.17
2023-03-19T08:41:11.951Z,16.27
2023-03-19T08:43:41.229Z,16.52
2023-03-19T08:46:11.154Z,16.35
2023-03-19T08:48:41.581Z,17.42
2023-03-19T08:51:11.593Z,17.37
2023-03-19T08:53:41.519Z,17.25
2023-03-19T08:56:10.992Z,17.02
2023-03-19T08:58:42.183Z,17.02
2023-03-19T09:01:14.086Z,17.65
2023-03-19T09:03:45.370Z,17.40
2023-03-19T09:06:15.004Z,15.55
2023-03-19T09:08:45.110Z,15.78
2023-03-19T09:11:18.081Z,15.18
2023-03-19T09:13:47.366Z,15.72
2023-03-19T09:16:17.645Z,15.75
2023-03-19T09:18:46.995Z,15.63
2023-03-19T09:21:16.537Z,15.83
2023-03-19T09:23:45.969Z,15.45
2023-03-19T09:26:15.487Z,15.72
2023-03-19T09:28:44.718Z,14.10
2023-03-19T09:31:14.048Z,14.70
2023-03-19T09:33:43.384Z,15.00
2023-03-19T09:36:13.331Z,14.60
2023-03-19T09:38:42.729Z,15.80
2023-03-19T09:41:17.962Z,15.55
2023-03-19T09:44:05.633Z,15.90
2023-03-19T09:46:42.720Z,15.63
2023-03-19T09:49:27.613Z,15.13
2023-03-19T09:52:09.686Z,16.87
2023-03-19T09:54:42.274Z,18.20
2023-03-19T09:59:42.542Z,17.70
2023-03-19T10:02:32.486Z,19.37
2023-03-19T10:05:13.705Z,20.43
2023-03-19T10:07:58.270Z,19.90
2023-03-19T10:10:33.481Z,21.90
2023-03-19T10:13:11.747Z,21.33
2023-03-19T10:15:43.629Z,20.12
2023-03-19T10:18:20.897Z,24.98
2023-03-19T10:21:05.277Z,24.65
2023-03-19T10:23:57.923Z,22.15
2023-03-19T10:26:34.473Z,21.23
2023-03-19T10:29:07.045Z,18.65
2023-03-19T10:34:24.644Z,17.73
2023-03-19T10:37:06.554Z,15.48
2023-03-19T10:39:37.770Z,15.13
2023-03-19T10:42:22.551Z,14.58
2023-03-19T10:45:07.100Z,15.15
2023-03-19T10:47:41.180Z,15.35
2023-03-19T10:50:13.691Z,16.87
2023-03-19T10:55:21.264Z,18.42
2023-03-19T10:57:52.070Z,18.77
2023-03-19T11:00:27.016Z,21.27
2023-03-19T11:02:59.190Z,21.07
2023-03-19T11:05:31.944Z,21.07
2023-03-19T11:08:07.376Z,21.55
2023-03-19T11:10:37.694Z,21.00
2023-03-19T11:13:10.063Z,21.87
2023-03-19T11:15:40.439Z,21.75
2023-03-19T11:18:15.684Z,22.02
2023-03-19T11:20:48.052Z,21.80
2023-03-19T11:23:18.931Z,22.82
2023-03-19T11:25:52.985Z,21.77
2023-03-19T11:28:26.423Z,23.95
2023-03-19T11:31:22.610Z,22.00
2023-03-19T11:34:27.710Z,22.17
2023-03-19T11:37:15.365Z,20.08
2023-03-19T11:40:10.215Z,20.27
2023-03-19T11:42:48.939Z,19.52
2023-03-19T11:45:31.572Z,19.57
2023-03-19T11:48:37.436Z,17.82
2023-03-19T11:51:27.813Z,17.45
2023-03-19T11:54:05.885Z,17.77
2023-03-19T11:57:00.052Z,17.77
2023-03-19T12:00:04.244Z,18.05
2023-03-19T12:03:00.471Z,17.20
2023-03-19T12:05:48.232Z,16.42
2023-03-19T12:08:32.788Z,17.75
2023-03-19T12:11:27.936Z,18.07
2023-03-19T12:14:18.711Z,18.17
2023-03-19T12:17:04.694Z,18.45
2023-03-19T12:19:55.479Z,17.82
2023-03-19T12:22:30.886Z,16.65
2023-03-19T12:25:06.035Z,16.90
2023-03-19T12:28:06.117Z,16.45
2023-03-19T12:30:43.476Z,16.30
2023-03-19T12:33:32.558Z,16.40
2023-03-19T12:36:02.305Z,16.70
2023-03-19T12:38:51.307Z,15.25
2023-03-19T12:41:23.681Z,14.73
2023-03-19T12:46:41.900Z,13.35
2023-03-19T12:49:31.651Z,13.83
2023-03-19T12:52:07.165Z,13.15
2023-03-19T12:54:39.437Z,13.22
2023-03-19T12:57:29.785Z,13.08
2023-03-19T13:00:02.962Z,10.45
2023-03-19T13:02:41.650Z,11.65
2023-03-19T13:05:21.194Z,11.00
2023-03-19T13:08:02.337Z,10.70
2023-03-19T13:10:35.638Z,11.03
2023-03-19T13:13:24.303Z,10.93
2023-03-19T13:15:56.908Z,11.12
2023-03-19T13:18:32.406Z,12.37
2023-03-19T13:21:16.787Z,11.57
2023-03-19T13:23:47.889Z,11.20
2023-03-19T13:26:17.757Z,12.33
2023-03-19T13:29:18.141Z,13.13
2023-03-19T13:31:47.480Z,12.47
2023-03-19T13:34:22.000Z,12.85
2023-03-19T13:37:02.861Z,13.28
2023-03-19T13:39:34.480Z,12.68
2023-03-19T13:42:27.377Z,13.40
2023-03-19T13:45:16.951Z,11.80
2023-03-19T13:47:48.180Z,12.18
2023-03-19T13:50:23.688Z,11.50
2023-03-19T13:52:57.430Z,12.20
2023-03-19T13:55:31.300Z,12.05
2023-03-19T13:58:14.434Z,12.20
2023-03-19T14:00:47.192Z,14.47
2023-03-19T14:03:22.564Z,12.07
2023-03-19T14:05:54.265Z,12.82
2023-03-19T14:08:32.669Z,12.80
2023-03-19T14:11:04.694Z,13.43
2023-03-19T14:13:41.926Z,13.78
2023-03-19T14:16:26.205Z,14.28
2023-03-19T14:18:59.540Z,14.78
2023-03-19T14:21:47.152Z,14.05
2023-03-19T14:27:18.780Z,11.70
2023-03-19T14:29:48.696Z,11.27
2023-03-19T14:32:19.573Z,12.30
2023-03-19T14:34:50.657Z,11.95
2023-03-19T14:37:32.702Z,10.88
2023-03-19T14:40:11.173Z,11.38
2023-03-19T14:42:56.170Z,10.30
2023-03-19T14:46:01.281Z,13.40
2023-03-19T14:48:54.895Z,12.50
2023-03-19T14:51:46.045Z,12.95
2023-03-19T14:54:27.302Z,11.48
2023-03-19T14:56:58.057Z,10.98
2023-03-19T14:59:27.468Z,12.25
2023-03-19T15:01:57.144Z,11.18
2023-03-19T15:04:27.232Z,11.20
2023-03-19T15:06:58.957Z,12.58
2023-03-19T15:09:31.790Z,10.87
2023-03-19T15:12:15.198Z,12.68
2023-03-19T15:15:16.667Z,11.10
2023-03-19T15:17:54.431Z,11.10
2023-03-19T15:20:21.803Z,10.55
2023-03-19T15:23:01.598Z,11.63
2023-03-19T15:25:31.168Z,11.45
2023-03-19T15:28:09.859Z,9.93
2023-03-19T15:30:52.298Z,7.85
2023-03-19T15:33:37.192Z,8.48
2023-03-19T15:35:57.240Z,8.75
2023-03-19T15:38:29.237Z,9.10
2023-03-19T15:40:58.813Z,9.95
2023-03-19T15:43:28.353Z,9.25
2023-03-19T15:45:57.846Z,9.05
2023-03-19T15:48:42.385Z,8.30
2023-03-19T15:51:12.555Z,8.38
2023-03-19T15:53:42.479Z,8.08
2023-03-19T15:56:14.024Z,7.40
2023-03-19T15:58:50.778Z,8.58
2023-03-19T16:01:21.611Z,10.40
2023-03-19T16:03:54.385Z,9.35
2023-03-19T16:06:27.287Z,9.48
2023-03-19T16:08:57.958Z,10.32
2023-03-19T16:11:34.023Z,9.15
2023-03-19T16:14:18.595Z,8.23
2023-03-19T16:16:49.178Z,8.23
2023-03-19T16:19:38.774Z,9.63
2023-03-19T16:22:17.426Z,8.08
2023-03-19T16:24:47.603Z,7.67
2023-03-19T16:27:22.631Z,7.62
2023-03-19T16:29:59.658Z,7.87
2023-03-19T16:32:30.918Z,7.95
2023-03-19T16:35:09.551Z,7.22
2023-03-19T16:37:44.169Z,7.45
2023-03-19T16:40:16.620Z,6.75
2023-03-19T16:42:54.327Z,7.20
2023-03-19T16:45:31.755Z,7.62
2023-03-19T16:48:06.240Z,6.92
2023-03-19T16:50:37.669Z,6.58
2023-03-19T16:53:16.061Z,7.08
2023-03-19T16:55:45.396Z,6.47
2023-03-19T16:58:20.058Z,7.00
2023-03-19T17:00:49.688Z,5.65
2023-03-19T17:03:20.001Z,7.12
2023-03-19T17:05:49.790Z,6.50
2023-03-19T17:08:20.781Z,6.12
2023-03-19T17:10:52.268Z,7.30
2023-03-19T17:13:28.621Z,6.65
2023-03-19T17:16:04.515Z,5.53
2023-03-19T17:18:36.691Z,5.72
2023-03-19T17:21:26.238Z,9.83
2023-03-19T17:23:56.498Z,6.53
2023-03-19T17:26:28.494Z,6.97
2023-03-19T17:28:58.026Z,5.67
2023-03-19T17:31:30.213Z,7.10
2023-03-19T17:34:07.663Z,7.53
2023-03-19T17:36:37.285Z,6.60
2023-03-19T17:39:07.762Z,6.65
2023-03-19T17:41:38.877Z,7.67
2023-03-19T17:44:08.629Z,6.58
2023-03-19T17:46:41.787Z,8.00
2023-03-19T17:49:13.714Z,9.45
2023-03-19T17:51:43.125Z,8.93
2023-03-19T17:54:13.792Z,7.37
2023-03-19T17:56:44.212Z,7.92
2023-03-19T17:59:13.729Z,10.30
2023-03-19T18:01:43.713Z,7.92
2023-03-19T18:04:18.703Z,9.40
2023-03-19T18:06:51.135Z,15.85
2023-03-19T18:09:23.057Z,13.85
2023-03-19T18:11:52.542Z,10.63
2023-03-19T18:14:22.102Z,9.75
2023-03-19T18:16:51.969Z,10.08
2023-03-19T18:19:24.504Z,10.80
2023-03-19T18:24:22.513Z,10.93
2023-03-19T18:26:52.685Z,12.13
2023-03-19T18:29:21.936Z,11.65
2023-03-19T18:31:52.382Z,11.63
2023-03-19T18:34:21.816Z,12.23
2023-03-19T18:36:51.538Z,11.88
2023-03-19T18:39:21.468Z,12.33
2023-03-19T18:41:51.450Z,12.25
2023-03-19T18:44:21.063Z,14.20
2023-03-19T18:46:50.576Z,12.03
2023-03-19T18:49:25.511Z,13.65
2023-03-19T18:52:02.669Z,11.75
2023-03-19T18:54:26.908Z,12.73
2023-03-19T18:56:57.212Z,10.48
2023-03-19T18:59:32.609Z,14.73
2023-03-19T19:02:28.021Z,11.35
2023-03-19T19:04:58.266Z,14.95
2023-03-19T19:07:27.914Z,20.48
2023-03-19T19:09:57.788Z,21.20
2023-03-19T19:12:28.290Z,14.40
2023-03-19T19:14:58.868Z,17.50
2023-03-19T19:17:29.741Z,14.65
2023-03-19T19:19:59.057Z,14.58
2023-03-19T19:22:30.041Z,14.90
2023-03-19T19:24:59.402Z,15.40
2023-03-19T19:27:28.839Z,14.75
2023-03-19T19:29:59.842Z,13.78
2023-03-19T19:32:31.285Z,12.85
2023-03-19T19:35:00.648Z,13.75
2023-03-19T19:37:30.124Z,14.75
2023-03-19T19:39:59.392Z,14.43
2023-03-19T19:42:29.281Z,15.23
2023-03-19T19:44:59.097Z,14.60
2023-03-19T19:47:28.775Z,15.30
2023-03-19T19:49:58.204Z,17.57
2023-03-19T19:52:27.663Z,14.00
2023-03-19T19:54:56.961Z,13.70
2023-03-19T19:57:26.293Z,13.13
2023-03-19T19:59:56.364Z,12.28
2023-03-19T20:02:29.957Z,12.63
2023-03-19T20:04:59.838Z,14.13
2023-03-19T20:07:29.868Z,11.50
2023-03-19T20:09:59.192Z,11.55
2023-03-19T20:12:31.958Z,13.58
2023-03-19T20:15:01.463Z,11.65
2023-03-19T20:17:30.738Z,13.00
2023-03-19T20:20:00.516Z,12.10
2023-03-19T20:22:29.886Z,12.50
2023-03-19T20:24:59.511Z,12.80
2023-03-19T20:27:31.520Z,10.03
2023-03-19T20:30:01.429Z,12.13
2023-03-19T20:32:33.161Z,10.75
2023-03-19T20:35:04.116Z,12.75
2023-03-19T20:37:33.526Z,12.43
2023-03-19T20:40:03.189Z,15.80
2023-03-19T20:42:35.248Z,13.93
2023-03-19T20:45:06.051Z,12.93
2023-03-19T20:47:35.414Z,13.78
2023-03-19T20:50:10.231Z,14.63
2023-03-19T20:52:38.581Z,11.97
2023-03-19T20:55:09.609Z,12.68
2023-03-19T20:57:38.954Z,13.80
2023-03-19T21:00:22.440Z,14.00
2023-03-19T21:02:53.594Z,14.63
2023-03-19T21:05:23.767Z,15.50
2023-03-19T21:07:54.777Z,16.60
2023-03-19T21:10:35.799Z,13.72
2023-03-19T21:13:05.452Z,11.95
2023-03-19T21:15:35.266Z,12.65
2023-03-19T21:18:05.020Z,13.48
2023-03-19T21:20:35.708Z,13.15
2023-03-19T21:23:26.555Z,10.93
2023-03-19T21:25:56.211Z,11.50
2023-03-19T21:28:34.842Z,10.10
2023-03-19T21:31:04.295Z,12.53
2023-03-19T21:33:36.482Z,11.50
2023-03-19T21:36:07.001Z,12.43
2023-03-19T21:38:36.401Z,9.63
2023-03-19T21:41:11.408Z,11.97
2023-03-19T21:43:47.669Z,11.55
2023-03-19T21:46:24.603Z,11.63
2023-03-19T21:48:49.019Z,11.53
2023-03-19T21:51:18.261Z,11.80
2023-03-19T21:53:47.918Z,13.83
2023-03-19T21:56:23.055Z,11.68
2023-03-19T21:58:57.299Z,11.43
2023-03-19T22:01:29.474Z,11.12
2023-03-19T22:04:01.825Z,10.63
2023-03-19T22:06:43.065Z,11.08
2023-03-19T22:09:14.997Z,11.75
2023-03-19T22:11:46.409Z,10.95
2023-03-19T22:14:32.283Z,10.50
2023-03-19T22:17:10.941Z,11.55
2023-03-19T22:19:41.423Z,10.85
2023-03-19T22:22:12.404Z,10.28
2023-03-19T22:24:41.880Z,10.88
2023-03-19T22:27:19.525Z,10.78
2023-03-19T22:29:51.616Z,12.05
2023-03-19T22:32:25.693Z,10.82
2023-03-19T22:34:57.568Z,11.68
2023-03-19T22:37:29.899Z,11.00
2023-03-19T22:39:59.120Z,11.25
2023-03-19T22:42:28.552Z,11.43
2023-03-19T22:44:57.850Z,11.08
2023-03-19T22:47:29.042Z,10.58
2023-03-19T22:49:58.346Z,10.95
2023-03-19T22:52:29.142Z,11.08
2023-03-19T22:54:58.554Z,10.98
2023-03-19T22:57:27.873Z,10.50
2023-03-19T22:59:57.189Z,9.68
2023-03-19T23:02:27.166Z,9.78
2023-03-19T23:04:56.397Z,9.20
2023-03-19T23:07:26.137Z,8.70
2023-03-19T23:09:56.734Z,8.53
2023-03-19T23:12:26.634Z,9.30
2023-03-19T23:14:56.745Z,8.45
2023-03-19T23:17:25.968Z,8.30
2023-03-19T23:19:55.661Z,8.15
2023-03-19T23:22:25.687Z,9.10
2023-03-19T23:24:55.467Z,8.03
2023-03-19T23:27:26.727Z,8.08
2023-03-19T23:29:56.223Z,8.90
2023-03-19T23:32:27.066Z,9.73
2023-03-19T23:35:01.200Z,10.10
2023-03-19T23:37:29.107Z,10.10
2023-03-19T23:39:58.543Z,10.65
2023-03-19T23:42:30.469Z,11.05
2023-03-19T23:45:01.958Z,11.40
2023-03-19T23:47:31.775Z,10.80
2023-03-19T23:50:01.191Z,11.45
2023-03-19T23:52:30.758Z,11.88
2023-03-19T23:54:59.953Z,12.35
2023-03-19T23:57:29.194Z,11.73
2023-03-19T23:59:58.975Z,11.75
